Terminal Aerodrome Forecast
Issued by NWS

Home | Current Version | Previous Version | Text Only | Print | Product List | Glossary On
Versions: 1 2 3 4 5 6 7 8 9 10 11 12 13 14 15
826
FTUS43 KMPX 011008 AAA
TAFRWF
TAF AMD
KRWF 011008Z 0110/0206 32012KT P6SM OVC011
     FM012300 31005KT P6SM BKN015 OVC035=

USA.gov is the U.S. government's official web portal to all federal, state and local government web resources and services.